createdAt,value
2019-05-02T00:03:53.944Z,19.00
2019-05-02T00:08:58.846Z,20.00
2019-05-02T00:14:09.352Z,21.27
2019-05-02T00:19:14.294Z,16.29
2019-05-02T00:24:18.994Z,21.25
2019-05-02T00:29:23.690Z,24.00
2019-05-02T00:34:34.223Z,23.73
2019-05-02T00:39:38.784Z,23.00
2019-05-02T00:44:48.188Z,22.87
2019-05-02T00:49:54.782Z,24.25
2019-05-02T00:55:01.351Z,23.38
2019-05-02T01:00:16.367Z,25.50
2019-05-02T01:05:22.924Z,25.18
2019-05-02T01:10:29.203Z,23.62
2019-05-02T01:15:39.115Z,27.37
2019-05-02T01:20:44.126Z,27.75
2019-05-02T01:25:54.499Z,29.75
2019-05-02T01:31:01.595Z,33.00
2019-05-02T01:36:10.422Z,29.22
2019-05-02T01:41:18.305Z,32.56
2019-05-02T01:46:27.116Z,36.00
2019-05-02T01:51:36.791Z,34.50
2019-05-02T01:56:40.466Z,38.50
2019-05-02T02:01:47.804Z,39.63
2019-05-02T02:06:54.096Z,36.00
2019-05-02T02:12:04.946Z,36.00
2019-05-02T02:17:10.060Z,37.75
2019-05-02T02:22:16.439Z,37.38
2019-05-02T02:27:24.663Z,37.50
2019-05-02T02:32:30.691Z,37.63
2019-05-02T02:37:37.833Z,35.44
2019-05-02T02:42:44.329Z,37.00
2019-05-02T02:47:52.872Z,34.00
2019-05-02T02:52:58.028Z,35.75
2019-05-02T02:58:04.712Z,36.00
2019-05-02T03:03:11.133Z,32.38
2019-05-02T03:08:15.900Z,33.00
2019-05-02T03:13:21.636Z,40.50
2019-05-02T03:18:39.719Z,33.50
2019-05-02T03:23:38.758Z,32.00
2019-05-02T03:28:57.124Z,33.63
2019-05-02T03:33:59.771Z,32.00
2019-05-02T03:39:00.139Z,30.50
2019-05-02T03:44:11.306Z,30.00
2019-05-02T03:49:15.873Z,30.62
2019-05-02T03:54:22.384Z,31.00
2019-05-02T03:59:37.183Z,36.50
2019-05-02T04:04:36.170Z,26.78
2019-05-02T04:09:43.452Z,29.00
2019-05-02T04:14:55.574Z,29.37
2019-05-02T04:20:09.409Z,29.67
2019-05-02T04:25:10.893Z,23.75
2019-05-02T04:30:15.709Z,22.00
2019-05-02T04:35:28.732Z,21.08
2019-05-02T04:40:41.782Z,21.45
2019-05-02T04:45:55.249Z,19.12
2019-05-02T04:50:51.771Z,16.33
2019-05-02T04:56:05.094Z,16.75
2019-05-02T05:01:02.258Z,15.50
2019-05-02T05:06:12.236Z,18.25
2019-05-02T05:11:20.838Z,21.25
2019-05-02T05:16:23.712Z,16.00
2019-05-02T05:21:29.593Z,13.57
2019-05-02T05:26:40.987Z,20.75
2019-05-02T05:31:42.828Z,25.12
2019-05-02T05:36:51.161Z,20.37
2019-05-02T05:41:59.588Z,19.75
2019-05-02T05:47:07.245Z,18.00
2019-05-02T05:52:11.881Z,18.71
2019-05-02T05:57:17.462Z,15.67
2019-05-02T06:02:22.409Z,21.00
2019-05-02T06:07:33.604Z,17.62
2019-05-02T06:12:37.210Z,18.25
2019-05-02T06:17:45.644Z,16.62
2019-05-02T06:22:54.952Z,17.14
2019-05-02T06:28:00.296Z,25.14
2019-05-02T06:33:07.390Z,19.75
2019-05-02T06:38:14.211Z,20.62
2019-05-02T06:43:17.679Z,24.00
2019-05-02T06:48:22.902Z,17.29
2019-05-02T06:53:29.009Z,28.25
2019-05-02T06:58:41.385Z,25.00
2019-05-02T07:03:46.272Z,22.25
2019-05-02T07:08:50.742Z,19.87
2019-05-02T07:13:55.943Z,23.50
2019-05-02T07:19:02.161Z,23.38
2019-05-02T07:24:06.626Z,25.50
2019-05-02T07:29:11.143Z,27.00
2019-05-02T07:34:14.709Z,21.33
2019-05-02T07:39:23.427Z,22.62
2019-05-02T07:44:32.580Z,26.57
2019-05-02T07:49:35.701Z,22.00
2019-05-02T07:54:41.711Z,24.75
2019-05-02T07:59:49.896Z,23.43
2019-05-02T08:05:00.014Z,28.00
2019-05-02T08:10:05.909Z,23.75
2019-05-02T08:15:13.356Z,21.62
2019-05-02T08:20:21.300Z,20.00
2019-05-02T08:25:29.084Z,18.62
2019-05-02T08:30:40.393Z,20.62
2019-05-02T08:35:45.408Z,20.25
2019-05-02T08:40:49.778Z,20.00
2019-05-02T08:45:58.378Z,21.25
2019-05-02T08:51:02.127Z,21.00
2019-05-02T08:56:07.553Z,20.71
2019-05-02T09:01:13.724Z,23.00
2019-05-02T09:06:17.210Z,14.75
2019-05-02T09:11:26.412Z,18.75
2019-05-02T09:16:32.863Z,20.71
2019-05-02T09:21:37.907Z,20.25
2019-05-02T09:26:43.320Z,16.71
2019-05-02T09:31:50.348Z,20.37
2019-05-02T09:36:53.250Z,24.33
2019-05-02T09:41:58.741Z,19.86
2019-05-02T09:47:02.439Z,20.00
2019-05-02T09:52:08.514Z,21.87
2019-05-02T09:57:14.776Z,19.14
2019-05-02T10:02:22.242Z,22.00
2019-05-02T10:07:29.588Z,28.75
2019-05-02T10:12:38.833Z,23.25
2019-05-02T10:17:46.756Z,24.50
2019-05-02T10:22:49.107Z,25.00
2019-05-02T10:27:53.359Z,25.00
2019-05-02T10:33:02.525Z,18.29
2019-05-02T10:38:17.996Z,31.87
2019-05-02T10:43:18.154Z,19.62
2019-05-02T10:48:28.014Z,28.50
2019-05-02T10:53:26.527Z,19.33
2019-05-02T10:58:35.798Z,19.00
2019-05-02T11:03:43.736Z,29.50
2019-05-02T11:08:49.552Z,20.00
2019-05-02T11:14:00.449Z,20.50
2019-05-02T11:19:03.034Z,22.00
2019-05-02T11:24:07.352Z,20.50
2019-05-02T11:29:13.577Z,24.12
2019-05-02T11:34:22.106Z,22.00
2019-05-02T11:39:40.962Z,31.75
2019-05-02T11:44:36.387Z,24.63
2019-05-02T11:49:42.329Z,32.00
2019-05-02T11:54:52.124Z,26.87
2019-05-02T11:59:59.472Z,22.00
2019-05-02T12:05:04.764Z,36.38
2019-05-02T12:10:09.646Z,26.00
2019-05-02T12:15:18.124Z,27.62
2019-05-02T12:20:28.545Z,22.71
2019-05-02T12:25:33.098Z,25.75
2019-05-02T12:30:37.821Z,22.00
2019-05-02T12:35:43.468Z,22.86
2019-05-02T12:40:48.793Z,21.71
2019-05-02T12:45:52.954Z,22.25
2019-05-02T12:50:57.102Z,15.00
2019-05-02T12:56:03.593Z,23.25
2019-05-02T13:01:07.310Z,22.00
2019-05-02T13:06:15.328Z,23.00
2019-05-02T13:11:22.764Z,19.62
2019-05-02T13:16:29.106Z,23.00
2019-05-02T13:21:41.461Z,21.25
2019-05-02T13:26:42.908Z,20.29
2019-05-02T13:31:48.339Z,19.14
2019-05-02T13:36:57.848Z,19.20
2019-05-02T13:42:03.557Z,18.71
2019-05-02T13:47:07.375Z,27.00
2019-05-02T13:52:11.870Z,22.17
2019-05-02T13:57:17.195Z,20.29
2019-05-02T14:02:39.920Z,32.00
2019-05-02T14:07:48.395Z,15.29
2019-05-02T14:12:52.837Z,18.25
2019-05-02T14:17:58.894Z,16.43
2019-05-02T14:23:06.179Z,17.12
2019-05-02T14:28:09.643Z,16.00
2019-05-02T14:33:12.780Z,30.33
2019-05-02T14:38:18.310Z,17.86
2019-05-02T14:43:22.971Z,13.29
2019-05-02T14:48:28.317Z,15.25
2019-05-02T14:53:32.076Z,19.00
2019-05-02T14:58:37.746Z,17.00
2019-05-02T15:03:42.317Z,17.25
2019-05-02T15:08:49.603Z,19.50
2019-05-02T15:13:56.716Z,18.67
2019-05-02T15:19:02.094Z,21.00
2019-05-02T15:24:04.980Z,17.00
2019-05-02T15:29:12.276Z,22.25
2019-05-02T15:34:13.430Z,16.33
2019-05-02T15:44:27.022Z,21.25
2019-05-02T15:49:36.686Z,17.00
2019-05-02T15:54:42.542Z,14.67
2019-05-02T15:59:47.367Z,15.29
2019-05-02T16:04:56.914Z,17.62
2019-05-02T16:10:01.096Z,14.67
2019-05-02T16:15:12.950Z,14.43
2019-05-02T16:20:13.547Z,14.86
2019-05-02T16:25:19.984Z,16.00
2019-05-02T16:30:24.808Z,14.00
2019-05-02T16:35:31.677Z,13.00
2019-05-02T16:40:41.767Z,16.20
2019-05-02T16:45:45.678Z,12.50
2019-05-02T16:50:50.272Z,16.00
2019-05-02T16:55:58.400Z,13.29
2019-05-02T17:01:01.112Z,13.14
2019-05-02T17:06:04.768Z,14.50
2019-05-02T17:11:08.384Z,17.00
2019-05-02T17:16:17.077Z,16.14
2019-05-02T17:21:22.059Z,16.00
2019-05-02T17:26:28.022Z,13.43
2019-05-02T17:31:32.564Z,15.71
2019-05-02T17:36:37.244Z,17.00
2019-05-02T17:41:42.303Z,17.00
2019-05-02T17:46:50.693Z,16.87
2019-05-02T17:52:05.402Z,16.87
2019-05-02T17:57:02.604Z,16.14
2019-05-02T18:02:12.298Z,15.86
2019-05-02T18:07:18.065Z,17.71
2019-05-02T18:12:21.798Z,26.00
2019-05-02T18:17:29.146Z,20.88
2019-05-02T18:22:34.830Z,29.50
2019-05-02T18:27:42.121Z,20.25
2019-05-02T18:32:52.878Z,30.00
2019-05-02T18:38:02.548Z,34.50
2019-05-02T18:43:11.575Z,30.88
2019-05-02T18:48:18.523Z,27.14
2019-05-02T18:53:25.776Z,25.25
2019-05-02T18:58:28.502Z,26.67
2019-05-02T19:03:33.428Z,27.00
2019-05-02T19:08:46.777Z,27.75
2019-05-02T19:13:52.498Z,30.37
2019-05-02T19:18:58.370Z,22.87
2019-05-02T19:24:02.430Z,34.67
2019-05-02T19:29:08.385Z,32.00
2019-05-02T19:34:16.837Z,22.25
2019-05-02T19:39:23.929Z,32.00
2019-05-02T19:44:29.461Z,27.00
2019-05-02T19:49:35.834Z,29.75
2019-05-02T19:54:45.202Z,31.12
2019-05-02T19:59:52.445Z,33.88
2019-05-02T20:04:59.928Z,24.00
2019-05-02T20:10:08.206Z,32.75
2019-05-02T20:15:17.068Z,27.87
2019-05-02T20:20:35.856Z,25.00
2019-05-02T20:25:40.139Z,33.00
2019-05-02T20:30:48.771Z,32.00
2019-05-02T20:35:54.917Z,35.00
2019-05-02T20:41:04.372Z,33.38
2019-05-02T20:46:13.085Z,32.00
2019-05-02T20:51:16.828Z,35.25
2019-05-02T20:56:27.976Z,32.75
2019-05-02T21:01:39.872Z,34.83
2019-05-02T21:06:45.956Z,32.00
2019-05-02T21:11:52.508Z,35.00
2019-05-02T21:16:56.976Z,35.00
2019-05-02T21:22:07.234Z,33.50
2019-05-02T21:27:15.226Z,41.37
2019-05-02T21:32:22.981Z,35.00
2019-05-02T21:37:31.845Z,35.44
2019-05-02T21:42:38.317Z,8.33
2019-05-02T21:47:42.590Z,40.75
2019-05-02T21:52:52.586Z,35.50
2019-05-02T21:57:59.587Z,33.00
2019-05-02T22:03:04.663Z,35.00
2019-05-02T22:08:08.879Z,37.75
2019-05-02T22:13:14.716Z,35.00
2019-05-02T22:18:22.172Z,41.00
2019-05-02T22:23:33.682Z,37.00
2019-05-02T22:28:39.751Z,36.00
2019-05-02T22:33:48.856Z,36.00
2019-05-02T22:38:57.118Z,37.22
2019-05-02T22:44:02.192Z,35.00
2019-05-02T22:49:09.166Z,35.75
2019-05-02T22:54:29.953Z,33.75
2019-05-02T22:59:28.062Z,36.33
2019-05-02T23:04:37.254Z,38.25
2019-05-02T23:09:43.709Z,36.25
2019-05-02T23:14:49.669Z,37.75
2019-05-02T23:19:57.979Z,35.00
2019-05-02T23:25:04.758Z,36.00
2019-05-02T23:30:14.213Z,35.88
2019-05-02T23:35:19.139Z,36.00
2019-05-02T23:40:24.900Z,36.25
2019-05-02T23:45:32.347Z,33.00
2019-05-02T23:50:41.474Z,34.75
2019-05-02T23:55:50.603Z,34.75
